Monse, Washington
Current Conditions -  °F | °C
As of 6:33 AM on Thursday 18 Dec 2014 (Local Time) from KOMK Reporting Station
Haze Haze  
Wind Chill: 34°   Ceiling: 200
Heat Index: 34°   Visibility: 0.75mi
Dew Point: 33°   Wind: 0mph
Humidity: 96%   Direction: NA
Pressure: 29.99"   Gusts: NA
Location:  48.2133°N, 119.829°W
Report Text: KOMK 181433Z AUTO 00000KT 3/4SM BR BKN002 BKN008 OVC017 01/01 A2999 RMK AO2 T00110006
Loading
Personal Weather Stations






























Interactive Weather Map New forecast layout! Learn more

10-Day Weather Forecast

Advertisements
Track Severe Weather on mobile